createdAt,value
2023-03-23T15:58:31.475Z,99591.56
2023-03-23T16:01:39.010Z,99598.78
2023-03-23T16:04:46.297Z,99597.31
2023-03-23T16:07:52.308Z,99616.56
2023-03-23T16:10:56.676Z,99612.47
2023-03-23T16:14:01.777Z,99621.25
2023-03-23T16:17:07.738Z,99624.69
2023-03-23T16:20:17.577Z,99614.84
2023-03-23T16:23:21.617Z,99614.88
2023-03-23T16:26:25.866Z,99617.50
2023-03-23T16:35:44.089Z,99628.13
2023-03-23T16:38:49.007Z,99623.84
2023-03-23T16:41:53.999Z,99623.69
2023-03-23T16:44:57.945Z,99625.81
2023-03-23T16:48:03.657Z,99625.47
2023-03-23T16:51:08.052Z,99628.81
2023-03-23T16:54:12.204Z,99617.25
2023-03-23T16:57:17.079Z,99618.28
2023-03-23T17:00:22.409Z,99625.72
2023-03-23T17:03:28.187Z,99628.31
2023-03-23T17:06:32.824Z,99633.28
2023-03-23T17:09:36.875Z,99637.19
2023-03-23T17:12:41.889Z,99638.22
2023-03-23T17:15:47.744Z,99643.47
2023-03-23T17:18:53.477Z,99645.47
2023-03-23T17:21:57.499Z,99639.22
2023-03-23T17:25:02.532Z,99638.94
2023-03-23T17:28:07.353Z,99647.41
2023-03-23T17:31:11.595Z,99640.56
2023-03-23T17:34:18.741Z,99647.31
2023-03-23T17:37:23.925Z,99658.31
2023-03-23T17:40:28.221Z,99656.84
2023-03-23T17:43:32.423Z,99662.41
2023-03-23T17:46:36.739Z,99667.00
2023-03-23T17:49:42.376Z,99667.00
2023-03-23T17:52:46.352Z,99676.47
2023-03-23T17:55:50.576Z,99678.16
2023-03-23T17:58:54.639Z,99687.81
2023-03-23T18:01:59.187Z,99690.72
2023-03-23T18:05:04.746Z,99699.22
2023-03-23T18:08:09.509Z,99703.47
2023-03-23T18:11:13.951Z,99704.66
2023-03-23T18:14:18.200Z,99706.97
2023-03-23T18:17:22.364Z,99715.47
2023-03-23T18:20:28.251Z,99710.72
2023-03-23T18:23:39.071Z,99721.97
2023-03-23T18:26:47.404Z,99726.25
2023-03-23T18:29:51.502Z,99725.53
2023-03-23T18:32:55.865Z,99733.06
2023-03-23T18:36:02.808Z,99733.16
2023-03-23T18:39:09.625Z,99733.41
2023-03-23T18:42:13.748Z,99737.81
2023-03-23T18:45:17.992Z,99739.84
2023-03-23T18:48:22.178Z,99740.38
2023-03-23T18:51:27.895Z,99739.06
2023-03-23T18:54:35.048Z,99749.38
2023-03-23T18:57:41.416Z,99748.56
2023-03-23T19:00:46.574Z,99745.84
2023-03-23T19:03:50.704Z,99752.69
2023-03-23T19:06:56.383Z,99752.03
2023-03-23T19:10:00.404Z,99759.94
2023-03-23T19:13:04.764Z,99758.69
2023-03-23T19:16:09.772Z,99760.81
2023-03-23T19:19:14.263Z,99765.25
2023-03-23T19:22:19.973Z,99757.06
2023-03-23T19:25:24.136Z,99761.53
2023-03-23T19:31:35.568Z,99759.81
2023-03-23T19:34:39.748Z,99767.78
2023-03-23T19:37:46.033Z,99763.97
2023-03-23T19:40:56.003Z,99769.06
2023-03-23T19:44:01.703Z,99765.13
2023-03-23T19:47:05.995Z,99770.25
2023-03-23T19:50:10.616Z,99775.84
2023-03-23T19:53:18.913Z,99774.88
2023-03-23T19:56:23.485Z,99775.28
2023-03-23T19:59:27.948Z,99780.97
2023-03-23T20:02:32.247Z,99775.91
2023-03-23T20:05:36.960Z,99790.38
2023-03-23T20:08:48.774Z,99793.47
2023-03-23T20:11:53.552Z,99797.59
2023-03-23T20:14:59.114Z,99796.22
2023-03-23T20:18:03.567Z,99785.84
2023-03-23T20:21:09.839Z,99799.16
2023-03-23T20:24:15.634Z,99808.28
2023-03-23T20:27:19.698Z,99810.97
2023-03-23T20:30:23.874Z,99810.91
2023-03-23T20:33:30.766Z,99816.88
2023-03-23T20:36:37.212Z,99817.31
2023-03-23T20:39:42.921Z,99824.28
2023-03-23T20:42:47.006Z,99824.03
2023-03-23T20:45:51.106Z,99828.31
2023-03-23T20:48:56.035Z,99826.22
2023-03-23T20:52:00.283Z,99821.22
2023-03-23T20:55:06.408Z,99817.56
2023-03-23T20:58:10.527Z,99820.69
2023-03-23T21:01:15.213Z,99821.06
2023-03-23T21:04:22.386Z,99823.38
2023-03-23T21:07:27.948Z,99823.19
2023-03-23T21:10:33.580Z,99823.84
2023-03-23T21:13:38.058Z,99834.75
2023-03-23T21:16:43.221Z,99835.19
2023-03-23T21:19:48.065Z,99837.16
2023-03-23T21:22:52.237Z,99834.25
2023-03-23T21:26:02.235Z,99830.25
2023-03-23T21:29:10.369Z,99829.81
2023-03-23T21:32:14.592Z,99820.69
2023-03-23T21:35:18.790Z,99821.22
2023-03-23T21:38:26.432Z,99822.09
2023-03-23T21:41:41.930Z,99826.97
2023-03-23T21:44:47.205Z,99821.19
2023-03-23T21:47:58.244Z,99824.84
2023-03-23T21:51:07.960Z,99822.75
2023-03-23T21:54:12.936Z,99824.44
2023-03-23T21:57:18.944Z,99819.00
2023-03-23T22:00:23.691Z,99822.81
2023-03-23T22:03:32.508Z,99826.56
2023-03-23T22:06:36.841Z,99823.72
2023-03-23T22:09:45.512Z,99820.06
2023-03-23T22:12:54.396Z,99812.06
2023-03-23T22:16:01.201Z,99809.25
2023-03-23T22:19:05.610Z,99803.88
2023-03-23T22:22:09.751Z,99804.84
2023-03-23T22:25:13.990Z,99820.88
2023-03-23T22:28:19.776Z,99811.13
2023-03-23T22:31:26.909Z,99810.72
2023-03-23T22:34:32.870Z,99824.13
2023-03-23T22:37:37.173Z,99825.34
2023-03-23T22:40:42.923Z,99816.66
2023-03-23T22:43:49.599Z,99816.16
2023-03-23T22:46:53.751Z,99815.75
2023-03-23T22:49:58.016Z,99819.22
2023-03-23T22:53:02.290Z,99815.09
2023-03-23T22:56:08.071Z,99804.53
2023-03-23T22:59:13.896Z,99808.06
2023-03-23T23:02:18.216Z,99807.66
2023-03-23T23:05:22.634Z,99805.97
2023-03-23T23:08:28.374Z,99813.50
2023-03-23T23:11:32.939Z,99809.22
2023-03-23T23:14:40.353Z,99807.72
2023-03-23T23:17:44.555Z,99810.78
2023-03-23T23:20:51.080Z,99803.88
2023-03-23T23:23:55.510Z,99808.69
2023-03-23T23:27:00.175Z,99814.06
2023-03-23T23:30:07.038Z,99808.53
2023-03-23T23:33:11.500Z,99811.19
2023-03-23T23:36:16.048Z,99809.75
2023-03-23T23:39:20.387Z,99801.13
2023-03-23T23:42:25.699Z,99795.75
2023-03-23T23:45:31.877Z,99798.31
2023-03-23T23:48:36.141Z,99789.41
2023-03-23T23:51:41.607Z,99787.00
2023-03-23T23:54:47.750Z,99788.78
2023-03-23T23:57:52.181Z,99792.25
